Time;durP1;ratioP1;P1;durP2;ratioP2;P2;SDS_P1;SDS_P2;PMS_P1;PMS_P2;Temp;Humidity;BMP_temperature;BMP_pressure;BME280_temperature;BME280_humidity;BME280_pressure;Samples;Min_cycle;Max_cycle;Signal;HPM_P1;HPM_P2
2023/12/09 00:01:46;;;;;;;1.13;1.13;;;7.00;99.90;;;;;;5091458;27;20658;-78
2023/12/09 00:04:12;;;;;;;2.97;2.78;;;7.50;99.90;;;;;;5087431;28;20416;-77
2023/12/09 00:06:37;;;;;;;0.93;0.75;;;7.40;99.90;;;;;;5093836;27;20036;-79
2023/12/09 00:09:03;;;;;;;2.05;1.42;;;7.40;99.90;;;;;;5112308;27;20031;-79
2023/12/09 00:11:29;;;;;;;1.35;1.27;;;7.40;99.90;;;;;;5074725;28;20066;-77
2023/12/09 00:13:55;;;;;;;0.65;0.65;;;7.40;99.90;;;;;;5089756;27;20032;-80
2023/12/09 00:16:20;;;;;;;0.77;0.77;;;7.40;99.90;;;;;;5090203;28;20499;-77
2023/12/09 00:18:46;;;;;;;1.20;1.17;;;7.40;99.90;;;;;;5108942;27;20507;-79
2023/12/09 00:21:12;;;;;;;1.95;1.85;;;7.40;99.90;;;;;;5091955;27;20066;-78
2023/12/09 00:23:37;;;;;;;1.67;0.82;;;7.40;99.90;;;;;;5108449;27;20044;-77
2023/12/09 00:26:03;;;;;;;1.58;1.50;;;7.40;99.90;;;;;;5065213;28;20506;-79
2023/12/09 00:28:29;;;;;;;0.85;0.85;;;7.40;99.90;;;;;;5107486;27;20035;-80
2023/12/09 00:30:55;;;;;;;1.10;1.05;;;7.40;99.90;;;;;;5084759;28;20044;-80
2023/12/09 00:33:20;;;;;;;2.08;1.27;;;7.40;99.90;;;;;;5091186;28;20079;-78
2023/12/09 00:35:46;;;;;;;10.90;2.15;;;7.60;99.90;;;;;;5108461;27;20046;-80
2023/12/09 00:38:11;;;;;;;1.02;1.00;;;7.50;99.90;;;;;;5083439;28;20047;-78
2023/12/09 00:40:37;;;;;;;0.75;0.75;;;7.50;99.90;;;;;;5108159;28;20036;-79
2023/12/09 00:43:03;;;;;;;0.80;0.80;;;7.40;99.90;;;;;;5109360;27;20096;-80
2023/12/09 00:45:29;;;;;;;0.50;0.50;;;7.40;99.90;;;;;;5112055;27;20067;-80
2023/12/09 00:47:55;;;;;;;2.05;1.95;;;7.40;99.90;;;;;;5095241;28;20079;-79
2023/12/09 00:50:20;;;;;;;1.10;1.00;;;7.50;99.90;;;;;;5109587;27;20075;-77
2023/12/09 00:52:46;;;;;;;0.50;0.50;;;7.50;99.90;;;;;;5095219;27;20038;-78
2023/12/09 00:55:12;;;;;;;4.07;3.72;;;7.50;99.90;;;;;;5091592;28;20555;-80
2023/12/09 00:57:37;;;;;;;1.27;0.93;;;7.50;99.90;;;;;;5093995;28;20035;-77
2023/12/09 01:00:04;;;;;;;1.05;1.05;;;7.50;99.90;;;;;;5105819;28;20122;-77
2023/12/09 01:02:31;;;;;;;1.42;1.33;;;7.50;99.90;;;;;;5107122;28;20043;-80
2023/12/09 01:04:57;;;;;;;1.15;1.15;;;7.50;99.90;;;;;;5091111;28;20043;-80
2023/12/09 01:07:23;;;;;;;0.75;0.75;;;7.40;99.90;;;;;;5106472;28;20097;-77
2023/12/09 01:09:49;;;;;;;1.08;1.08;;;7.50;99.90;;;;;;5107148;28;20043;-77
2023/12/09 01:12:15;;;;;;;0.88;0.85;;;7.50;99.90;;;;;;5089704;28;20097;-78
2023/12/09 01:14:41;;;;;;;1.10;1.05;;;7.40;99.90;;;;;;5109157;28;20096;-76
2023/12/09 01:17:06;;;;;;;1.02;0.98;;;7.50;99.90;;;;;;5092377;28;20039;-77
2023/12/09 01:19:32;;;;;;;4.60;3.45;;;7.50;99.90;;;;;;5106401;28;20043;-76
2023/12/09 01:21:58;;;;;;;1.92;1.83;;;7.50;99.90;;;;;;5107317;28;20042;-78
2023/12/09 01:24:27;;;;;;;0.65;0.65;;;7.60;99.90;;;;;;5094227;28;20039;-76
2023/12/09 01:26:52;;;;;;;0.60;0.60;;;7.60;99.90;;;;;;5107231;28;20154;-77
2023/12/09 01:29:18;;;;;;;5.05;3.97;;;7.50;99.90;;;;;;5107568;28;20141;-78
2023/12/09 01:31:43;;;;;;;0.40;0.40;;;7.60;99.90;;;;;;5106416;28;20069;-76
2023/12/09 01:34:09;;;;;;;5.07;3.85;;;7.50;99.90;;;;;;5106936;28;20101;-76
2023/12/09 01:36:35;;;;;;;1.83;1.73;;;7.50;99.90;;;;;;5107362;28;20047;-76
2023/12/09 01:39:00;;;;;;;0.70;0.70;;;7.50;99.90;;;;;;5107245;28;20050;-76
2023/12/09 01:41:28;;;;;;;0.55;0.55;;;7.50;99.90;;;;;;5089603;28;20049;-76
2023/12/09 01:43:54;;;;;;;2.53;2.35;;;7.50;99.90;;;;;;5106933;28;20051;-78
2023/12/09 01:46:21;;;;;;;2.15;1.13;;;7.50;99.90;;;;;;5108590;28;20564;-76
2023/12/09 01:48:48;;;;;;;1.98;1.88;;;7.60;99.90;;;;;;5108864;28;20078;-76
2023/12/09 01:51:16;;;;;;;1.58;1.48;;;7.60;99.90;;;;;;5105981;28;20369;-78
2023/12/09 01:53:42;;;;;;;0.63;0.63;;;7.60;99.90;;;;;;5105876;28;20043;-77
2023/12/09 01:56:10;;;;;;;0.80;0.80;;;7.60;99.90;;;;;;5111689;28;20384;-76
2023/12/09 01:58:37;;;;;;;1.95;0.90;;;7.60;99.90;;;;;;5110543;28;20039;-79
2023/12/09 02:01:04;;;;;;;1.08;1.08;;;7.60;99.90;;;;;;5105535;28;20040;-78
2023/12/09 02:03:33;;;;;;;1.90;1.80;;;7.60;99.90;;;;;;5105975;28;20578;-76
2023/12/09 02:05:59;;;;;;;0.70;0.65;;;7.60;99.90;;;;;;5108138;28;20038;-80
2023/12/09 02:08:26;;;;;;;0.70;0.50;;;7.70;99.90;;;;;;5109004;28;20051;-78
2023/12/09 02:11:18;;;;;;;1.45;1.05;;;7.70;99.90;;;;;;5089460;28;20075;-77
2023/12/09 02:14:07;;;;;;;0.40;0.40;;;7.60;99.90;;;;;;5106778;28;20525;-80
2023/12/09 02:17:11;;;;;;;1.25;1.15;;;7.70;99.90;;;;;;5107707;28;20039;-78
2023/12/09 02:19:38;;;;;;;3.80;2.47;;;7.70;99.90;;;;;;5109188;27;20078;-77
2023/12/09 02:22:06;;;;;;;1.40;1.30;;;7.70;99.90;;;;;;5110941;27;20122;-77
2023/12/09 02:24:33;;;;;;;1.42;1.30;;;7.60;99.90;;;;;;5108874;27;20038;-76
2023/12/09 02:27:12;;;;;;;0.95;0.95;;;7.80;99.90;;;;;;5110631;27;20040;-76
2023/12/09 02:30:06;;;;;;;0.68;0.68;;;7.70;99.90;;;;;;5110151;27;20135;-76
2023/12/09 02:32:34;;;;;;;0.60;0.60;;;7.70;99.90;;;;;;5110289;27;20067;-76
2023/12/09 02:35:02;;;;;;;1.38;1.30;;;7.70;99.90;;;;;;5109784;27;20465;-77
2023/12/09 02:37:31;;;;;;;2.17;1.98;;;7.70;99.90;;;;;;5094582;27;20054;-78
2023/12/09 02:39:59;;;;;;;1.52;1.08;;;7.70;99.90;;;;;;5113954;27;20118;-76
2023/12/09 02:42:26;;;;;;;1.58;1.48;;;7.70;99.90;;;;;;5111127;27;20162;-77
2023/12/09 02:44:52;;;;;;;1.58;1.48;;;7.80;99.90;;;;;;5110214;27;20043;-79
2023/12/09 02:47:17;;;;;;;0.63;0.63;;;7.80;99.90;;;;;;5111802;27;20515;-78
2023/12/09 02:49:43;;;;;;;1.77;1.63;;;7.70;99.90;;;;;;5111102;27;20047;-77
2023/12/09 02:52:10;;;;;;;0.43;0.43;;;7.80;99.90;;;;;;5110055;27;20044;-79
2023/12/09 02:54:36;;;;;;;1.00;1.00;;;7.70;99.90;;;;;;5112319;27;20118;-78
2023/12/09 02:57:03;;;;;;;0.40;0.40;;;7.70;99.90;;;;;;5114439;27;20043;-78
2023/12/09 02:59:30;;;;;;;2.63;1.95;;;7.70;99.90;;;;;;5112605;27;20434;-76
2023/12/09 03:01:56;;;;;;;1.13;1.13;;;7.70;99.90;;;;;;5116212;27;20071;-79
2023/12/09 03:04:22;;;;;;;;;;;7.70;99.90;;;;;;5115873;27;20576;-78
2023/12/09 03:06:48;;;;;;;0.70;0.70;;;7.70;99.90;;;;;;5114243;27;19998;-79
2023/12/09 03:09:13;;;;;;;1.58;1.15;;;7.70;99.90;;;;;;5109147;27;20043;-79
2023/12/09 03:11:39;;;;;;;1.05;1.05;;;7.70;99.90;;;;;;5094495;27;20093;-78
2023/12/09 03:14:05;;;;;;;0.40;0.40;;;7.70;99.90;;;;;;5086287;28;20122;-79
2023/12/09 03:16:30;;;;;;;1.15;1.15;;;7.70;99.90;;;;;;5088476;27;20044;-77
2023/12/09 03:18:56;;;;;;;1.27;1.23;;;7.70;99.90;;;;;;5093339;28;20036;-79
2023/12/09 03:21:22;;;;;;;1.13;1.02;;;7.80;99.90;;;;;;5091385;28;20044;-77
2023/12/09 03:23:47;;;;;;;2.10;1.90;;;7.70;99.90;;;;;;5108888;27;20130;-79
2023/12/09 03:26:18;;;;;;;0.77;0.77;;;7.70;99.90;;;;;;5109713;27;20419;-79
2023/12/09 03:28:43;;;;;;;0.85;0.57;;;7.70;99.90;;;;;;5091180;28;20040;-79
2023/12/09 03:31:14;;;;;;;3.20;1.42;;;7.70;99.90;;;;;;5091160;28;20058;-78
2023/12/09 03:33:40;;;;;;;2.47;0.60;;;7.70;99.90;;;;;;5110223;27;20035;-79
2023/12/09 03:36:09;;;;;;;5.38;1.80;;;7.70;99.90;;;;;;5115908;27;20751;-80
2023/12/09 03:38:35;;;;;;;0.47;0.47;;;7.60;99.90;;;;;;5107898;27;20523;-78
2023/12/09 03:41:04;;;;;;;1.15;1.15;;;7.60;99.90;;;;;;5109539;28;20055;-77
2023/12/09 03:43:31;;;;;;;0.57;0.57;;;7.60;99.90;;;;;;5105102;27;20260;-78
2023/12/09 03:45:56;;;;;;;;;;;7.50;99.90;;;;;;5109594;27;20039;-77
2023/12/09 03:48:22;;;;;;;1.40;1.30;;;7.50;99.90;;;;;;5111463;27;19919;-80
2023/12/09 03:50:47;;;;;;;0.57;0.57;;;7.50;99.90;;;;;;5068369;28;20838;-80
2023/12/09 03:53:13;;;;;;;1.25;1.15;;;7.50;99.90;;;;;;5109575;27;20410;-79
2023/12/09 03:55:39;;;;;;;1.13;0.75;;;7.40;99.90;;;;;;5091812;28;20047;-76
2023/12/09 03:58:05;;;;;;;0.50;0.50;;;7.40;99.90;;;;;;5074093;28;20188;-78
2023/12/09 04:00:31;;;;;;;1.10;1.00;;;7.40;99.90;;;;;;5108873;27;20039;-76
2023/12/09 04:02:57;;;;;;;0.93;0.93;;;7.80;99.90;;;;;;5092977;28;20047;-75
2023/12/09 04:05:23;;;;;;;2.28;0.85;;;7.40;99.90;;;;;;5112109;27;20477;-78
2023/12/09 04:07:48;;;;;;;1.48;1.38;;;7.40;99.90;;;;;;5108070;27;20050;-77
2023/12/09 04:10:14;;;;;;;0.88;0.88;;;7.40;99.90;;;;;;5091861;28;20035;-80
2023/12/09 04:12:40;;;;;;;1.15;1.08;;;7.40;99.90;;;;;;5076721;27;20061;-76
2023/12/09 04:15:07;;;;;;;1.98;1.88;;;7.40;99.90;;;;;;5094306;28;20035;-78
2023/12/09 04:17:33;;;;;;;0.68;0.68;;;7.50;99.90;;;;;;5109848;27;20043;-76
2023/12/09 04:19:59;;;;;;;0.68;0.68;;;7.40;99.90;;;;;;5091513;28;20038;-76
2023/12/09 04:22:24;;;;;;;1.10;1.10;;;7.50;99.90;;;;;;5109502;27;20047;-77
2023/12/09 04:24:50;;;;;;;0.63;0.63;;;7.50;99.90;;;;;;5061688;27;20039;-76
2023/12/09 04:27:16;;;;;;;3.85;0.88;;;7.50;99.90;;;;;;5091416;28;20142;-79
2023/12/09 04:29:42;;;;;;;2.45;2.25;;;7.50;99.90;;;;;;5090970;27;20047;-78
2023/12/09 04:32:08;;;;;;;1.95;1.55;;;7.50;99.90;;;;;;5108267;27;20051;-77
2023/12/09 04:34:35;;;;;;;2.05;1.30;;;7.50;99.90;;;;;;5109188;27;20040;-78
2023/12/09 04:37:01;;;;;;;0.70;0.70;;;7.50;99.90;;;;;;5108569;27;20173;-76
2023/12/09 04:39:27;;;;;;;0.75;0.75;;;7.50;99.90;;;;;;5091119;28;21009;-76
2023/12/09 04:41:53;;;;;;;2.20;1.08;;;7.50;99.90;;;;;;5110708;27;20055;-78
2023/12/09 04:44:19;;;;;;;1.95;1.08;;;7.50;99.90;;;;;;5093196;27;20046;-79
2023/12/09 04:46:44;;;;;;;;;;;7.50;99.90;;;;;;5087797;28;20496;-77
2023/12/09 04:49:10;;;;;;;1.15;1.15;;;7.50;99.90;;;;;;5073557;27;19940;-79
2023/12/09 04:51:36;;;;;;;1.63;0.60;;;7.50;99.90;;;;;;5114686;27;20180;-78
2023/12/09 04:54:02;;;;;;;1.88;1.52;;;7.50;99.90;;;;;;5092213;28;20039;-75
2023/12/09 04:56:29;;;;;;;0.77;0.77;;;7.50;99.90;;;;;;5111892;27;20515;-78
2023/12/09 04:58:55;;;;;;;0.75;0.75;;;7.50;99.90;;;;;;5105617;27;20046;-75
2023/12/09 05:01:21;;;;;;;0.75;0.75;;;7.40;99.90;;;;;;5100252;28;20035;-78
2023/12/09 05:03:47;;;;;;;1.95;1.85;;;7.50;99.90;;;;;;5106636;28;20476;-74
2023/12/09 05:06:13;;;;;;;2.03;1.95;;;7.40;99.90;;;;;;5107760;28;20035;-78
2023/12/09 05:08:41;;;;;;;1.10;0.82;;;7.40;99.90;;;;;;5091021;28;20153;-75
2023/12/09 05:11:08;;;;;;;3.67;1.23;;;7.40;99.90;;;;;;5110144;28;20594;-76
2023/12/09 05:13:34;;;;;;;0.60;0.60;;;7.40;99.90;;;;;;5111557;27;20078;-78
2023/12/09 05:16:00;;;;;;;;;;;7.40;99.90;;;;;;5107683;28;20177;-78
2023/12/09 05:18:25;;;;;;;1.10;1.00;;;7.40;99.90;;;;;;5091437;28;20408;-78
2023/12/09 05:20:51;;;;;;;0.40;0.40;;;7.40;99.90;;;;;;5076314;28;20039;-76
2023/12/09 05:23:17;;;;;;;0.73;0.73;;;7.40;99.90;;;;;;5090893;28;20113;-78
2023/12/09 05:25:44;;;;;;;1.83;1.67;;;7.40;99.90;;;;;;5106370;28;20065;-75
2023/12/09 05:28:09;;;;;;;1.50;1.15;;;7.40;99.90;;;;;;5108232;28;20097;-79
2023/12/09 05:30:36;;;;;;;1.17;1.10;;;7.40;99.90;;;;;;5109055;28;20507;-76
2023/12/09 05:33:01;;;;;;;1.38;1.38;;;7.40;99.90;;;;;;5106841;28;20100;-75
2023/12/09 05:35:27;;;;;;;1.85;1.02;;;7.40;99.90;;;;;;5107962;28;20036;-79
2023/12/09 05:37:53;;;;;;;;;;;7.40;99.90;;;;;;5095659;28;20040;-76
2023/12/09 05:40:19;;;;;;;1.08;1.05;;;7.50;99.90;;;;;;5090027;28;19927;-75
2023/12/09 05:42:44;;;;;;;0.50;0.50;;;7.40;99.90;;;;;;5089711;28;20047;-76
2023/12/09 05:45:10;;;;;;;3.60;1.50;;;7.50;99.90;;;;;;5089750;28;20039;-79
2023/12/09 05:47:36;;;;;;;0.50;0.50;;;7.40;99.90;;;;;;5109514;28;20154;-75
2023/12/09 05:50:02;;;;;;;0.63;0.63;;;7.40;99.90;;;;;;5068410;28;20136;-77
2023/12/09 05:52:27;;;;;;;0.70;0.70;;;7.40;99.90;;;;;;5105607;28;20039;-77
2023/12/09 05:54:53;;;;;;;0.85;0.85;;;7.40;99.90;;;;;;5110406;27;20120;-75
2023/12/09 05:57:19;;;;;;;0.52;0.52;;;7.40;99.90;;;;;;5078351;27;20028;-76
2023/12/09 05:59:44;;;;;;;0.40;0.40;;;7.40;99.90;;;;;;5094435;28;20411;-79
2023/12/09 06:02:10;;;;;;;0.73;0.73;;;7.40;99.90;;;;;;5097336;28;20047;-77
2023/12/09 06:04:36;;;;;;;1.10;1.10;;;7.40;99.90;;;;;;5113861;27;20103;-75
2023/12/09 06:07:03;;;;;;;1.27;1.25;;;7.40;99.90;;;;;;5094723;28;20126;-78
2023/12/09 06:09:29;;;;;;;0.50;0.50;;;7.40;99.90;;;;;;5094721;27;20429;-75
2023/12/09 06:11:54;;;;;;;;;;;7.50;99.90;;;;;;5108678;27;20412;-75
2023/12/09 06:14:20;;;;;;;0.50;0.50;;;7.50;99.90;;;;;;5081500;28;19920;-75
2023/12/09 06:16:46;;;;;;;0.60;0.60;;;7.50;99.90;;;;;;5094055;27;20050;-75
2023/12/09 06:19:13;;;;;;;0.60;0.55;;;7.40;99.90;;;;;;5111025;27;20043;-76
2023/12/09 06:21:38;;;;;;;1.95;1.85;;;7.40;99.90;;;;;;5110210;27;20503;-77
2023/12/09 06:24:04;;;;;;;0.70;0.70;;;7.40;99.90;;;;;;5093849;28;20070;-78
2023/12/09 06:26:30;;;;;;;0.82;0.82;;;7.40;99.90;;;;;;5111981;27;20067;-76
2023/12/09 06:28:56;;;;;;;0.90;0.90;;;7.40;99.90;;;;;;5110252;27;20050;-76
2023/12/09 06:31:21;;;;;;;0.95;0.95;;;7.40;99.90;;;;;;5109592;27;20456;-79
2023/12/09 06:33:47;;;;;;;0.40;0.40;;;7.40;99.90;;;;;;5094593;27;20040;-79
2023/12/09 06:36:13;;;;;;;0.40;0.40;;;7.40;99.90;;;;;;5092963;28;20123;-77
2023/12/09 06:38:39;;;;;;;0.50;0.50;;;7.40;99.90;;;;;;5110492;27;20031;-77
2023/12/09 06:41:06;;;;;;;0.50;0.50;;;7.40;99.90;;;;;;5109715;27;20031;-78
2023/12/09 06:43:31;;;;;;;;;;;7.40;99.90;;;;;;5109318;27;20422;-76
2023/12/09 06:46:00;;;;;;;1.25;1.25;;;7.40;99.90;;;;;;5092813;27;19920;-78
2023/12/09 06:48:26;;;;;;;2.10;1.38;;;7.40;99.90;;;;;;5110223;27;20074;-77
2023/12/09 06:50:51;;;;;;;0.45;0.45;;;7.30;99.90;;;;;;5092126;28;20070;-78
2023/12/09 06:53:17;;;;;;;0.68;0.55;;;7.30;99.90;;;;;;5092192;28;20122;-80
2023/12/09 06:55:43;;;;;;;1.95;1.02;;;7.30;99.90;;;;;;5110873;27;20051;-77
2023/12/09 06:58:08;;;;;;;1.23;1.13;;;7.30;99.90;;;;;;5092063;27;20472;-75
2023/12/09 07:00:35;;;;;;;2.05;1.95;;;7.30;99.90;;;;;;5067687;28;20032;-78
2023/12/09 07:03:01;;;;;;;1.08;0.70;;;7.30;99.90;;;;;;5112290;27;20054;-76
2023/12/09 07:05:27;;;;;;;0.47;0.47;;;7.30;99.90;;;;;;5099659;27;20036;-76
2023/12/09 07:07:52;;;;;;;0.65;0.65;;;7.30;99.90;;;;;;5088863;28;20126;-79
2023/12/09 07:10:18;;;;;;;2.33;1.77;;;7.30;99.90;;;;;;5106581;27;20174;-77
2023/12/09 07:12:44;;;;;;;0.70;0.70;;;7.30;99.90;;;;;;5063571;28;20120;-76
2023/12/09 07:15:11;;;;;;;0.45;0.45;;;7.20;99.90;;;;;;5110306;27;20055;-77
2023/12/09 07:17:37;;;;;;;0.80;0.80;;;7.20;99.90;;;;;;5106809;27;20048;-78
2023/12/09 07:20:05;;;;;;;2.38;1.38;;;7.20;99.90;;;;;;5107914;27;20416;-77
2023/12/09 07:22:31;;;;;;;0.55;0.55;;;7.20;99.90;;;;;;5107865;27;20407;-80
2023/12/09 07:24:57;;;;;;;0.30;0.30;;;7.30;99.90;;;;;;5093172;28;20043;-77
2023/12/09 07:27:22;;;;;;;0.65;0.65;;;7.20;99.90;;;;;;5089198;28;20734;-76
2023/12/09 07:29:49;;;;;;;0.77;0.77;;;7.20;99.90;;;;;;5106879;27;20044;-78
2023/12/09 07:32:14;;;;;;;;;;;7.30;99.90;;;;;;5091004;28;20040;-78
2023/12/09 07:34:40;;;;;;;0.50;0.50;;;7.20;99.90;;;;;;5089890;27;19924;-81
2023/12/09 07:37:06;;;;;;;0.65;0.65;;;7.10;99.90;;;;;;5057159;27;20039;-76
2023/12/09 07:39:31;;;;;;;0.75;0.75;;;7.10;99.90;;;;;;5071073;28;20074;-79
2023/12/09 07:41:57;;;;;;;0.88;0.88;;;7.10;99.90;;;;;;5062316;27;20075;-77
2023/12/09 07:44:23;;;;;;;0.60;0.60;;;7.10;99.90;;;;;;5107076;27;20046;-80
2023/12/09 07:46:50;;;;;;;0.70;0.70;;;7.30;99.90;;;;;;5089983;28;20048;-82
2023/12/09 07:49:15;;;;;;;0.85;0.85;;;7.10;99.90;;;;;;5094701;27;20123;-78
2023/12/09 07:51:41;;;;;;;1.10;1.00;;;7.00;99.90;;;;;;5106094;27;20126;-81
2023/12/09 07:54:07;;;;;;;0.63;0.63;;;7.00;99.90;;;;;;5083341;27;20040;-80
2023/12/09 07:56:33;;;;;;;0.55;0.55;;;7.00;99.90;;;;;;5112805;27;20040;-79
2023/12/09 07:58:59;;;;;;;5.90;1.45;;;7.00;99.90;;;;;;5100239;27;20034;-77
2023/12/09 08:01:26;;;;;;;0.98;0.63;;;7.00;99.90;;;;;;5114901;27;20067;-80
2023/12/09 08:03:52;;;;;;;0.82;0.82;;;7.00;99.90;;;;;;5106254;27;20093;-77
2023/12/09 08:06:17;;;;;;;0.82;0.82;;;7.00;99.90;;;;;;5101545;27;20067;-79
2023/12/09 08:08:43;;;;;;;0.43;0.43;;;7.00;99.90;;;;;;5075728;27;20069;-80
2023/12/09 08:11:09;;;;;;;1.38;1.27;;;7.00;99.90;;;;;;5113800;27;20576;-81
2023/12/09 08:13:43;;;;;;;0.55;0.55;;;6.90;99.90;;;;;;5094654;27;20104;-78
2023/12/09 08:16:08;;;;;;;0.77;0.77;;;6.90;99.90;;;;;;5102517;27;20047;-81
2023/12/09 08:18:34;;;;;;;1.65;1.55;;;6.90;99.90;;;;;;5098548;27;20423;-79
2023/12/09 08:21:01;;;;;;;1.85;1.75;;;6.90;99.90;;;;;;5064858;28;20050;-77
2023/12/09 08:23:27;;;;;;;0.55;0.55;;;7.00;99.90;;;;;;5090346;28;20388;-79
2023/12/09 08:25:53;;;;;;;1.75;1.65;;;7.00;99.90;;;;;;5109990;27;20046;-78
2023/12/09 08:28:19;;;;;;;0.50;0.50;;;6.90;99.90;;;;;;5099092;27;20072;-78
2023/12/09 08:30:46;;;;;;;1.35;1.35;;;7.00;99.90;;;;;;5091843;27;20043;-77
2023/12/09 08:33:13;;;;;;;1.02;0.93;;;7.00;99.90;;;;;;5082463;28;20036;-80
2023/12/09 08:35:41;;;;;;;0.60;0.60;;;7.00;99.90;;;;;;5086715;27;20120;-79
2023/12/09 08:38:06;;;;;;;0.65;0.65;;;7.00;99.90;;;;;;5072733;28;20132;-82
2023/12/09 08:40:32;;;;;;;0.50;0.50;;;7.00;99.90;;;;;;5084066;28;20044;-77
2023/12/09 08:42:58;;;;;;;1.55;1.55;;;7.00;99.90;;;;;;5071514;28;20067;-79
2023/12/09 08:45:24;;;;;;;1.48;1.45;;;7.00;99.90;;;;;;5097499;27;20036;-80
2023/12/09 08:47:49;;;;;;;0.50;0.50;;;7.00;99.90;;;;;;5079977;28;20035;-80
2023/12/09 08:50:15;;;;;;;0.50;0.50;;;7.00;99.90;;;;;;5083204;27;20036;-77
2023/12/09 08:52:41;;;;;;;0.57;0.57;;;7.00;99.90;;;;;;5071172;28;20039;-79
2023/12/09 08:55:07;;;;;;;0.50;0.50;;;7.10;99.90;;;;;;5072872;27;20040;-80
2023/12/09 08:57:33;;;;;;;0.50;0.50;;;7.10;99.90;;;;;;5111921;27;20097;-79
2023/12/09 08:59:59;;;;;;;1.27;1.17;;;7.00;99.90;;;;;;5090536;28;20031;-77
2023/12/09 09:02:26;;;;;;;0.50;0.50;;;7.10;99.90;;;;;;5112396;27;20938;-80
2023/12/09 09:04:52;;;;;;;0.60;0.60;;;7.10;99.90;;;;;;5073257;28;20068;-77
2023/12/09 09:07:18;;;;;;;1.10;1.05;;;7.00;99.90;;;;;;5090656;28;20056;-81
2023/12/09 09:09:44;;;;;;;;;;;7.10;99.90;;;;;;5091994;28;20130;-78
2023/12/09 09:12:10;;;;;;;0.50;0.50;;;7.10;99.90;;;;;;5092499;28;20018;-79
2023/12/09 09:14:36;;;;;;;1.33;1.23;;;7.10;99.90;;;;;;5102495;28;20255;-79
2023/12/09 09:17:03;;;;;;;0.55;0.55;;;7.10;99.90;;;;;;5072034;28;20058;-78
2023/12/09 09:19:29;;;;;;;1.65;1.30;;;7.10;99.90;;;;;;5106174;28;20031;-80
2023/12/09 09:21:55;;;;;;;0.40;0.40;;;7.10;99.90;;;;;;5105999;28;20039;-79
2023/12/09 09:24:21;;;;;;;0.60;0.60;;;7.10;99.90;;;;;;5105127;28;20043;-79
2023/12/09 09:26:47;;;;;;;0.50;0.50;;;7.10;99.90;;;;;;5104079;28;20036;-78
2023/12/09 09:29:13;;;;;;;0.80;0.80;;;7.10;99.90;;;;;;5107789;28;20054;-78
2023/12/09 09:31:38;;;;;;;0.70;0.70;;;7.10;99.90;;;;;;5094269;28;20043;-77
2023/12/09 09:34:04;;;;;;;0.50;0.50;;;7.10;99.90;;;;;;5094410;28;20037;-78
2023/12/09 09:36:30;;;;;;;0.77;0.77;;;7.20;99.90;;;;;;5094284;28;20075;-80
2023/12/09 09:38:56;;;;;;;0.50;0.50;;;7.20;99.90;;;;;;5055198;27;20050;-79
2023/12/09 09:41:31;;;;;;;;;;;7.20;99.90;;;;;;5096380;28;20476;-80
2023/12/09 09:44:18;;;;;;;0.60;0.60;;;7.20;99.90;;;;;;5096408;27;19943;-78
2023/12/09 09:46:46;;;;;;;0.38;0.38;;;7.20;99.90;;;;;;5091780;27;20145;-77
2023/12/09 09:49:12;;;;;;;1.58;1.48;;;7.30;99.90;;;;;;5097093;27;20092;-77
2023/12/09 09:51:43;;;;;;;0.85;0.85;;;7.40;99.90;;;;;;5091010;28;20047;-79
2023/12/09 09:54:26;;;;;;;2.05;1.55;;;7.30;99.90;;;;;;5111291;27;20044;-79
2023/12/09 09:56:53;;;;;;;0.98;0.90;;;7.40;99.90;;;;;;5110877;27;20071;-81
2023/12/09 09:59:20;;;;;;;0.40;0.40;;;7.40;99.90;;;;;;5112131;27;21095;-79
2023/12/09 10:01:46;;;;;;;1.02;1.02;;;7.40;99.90;;;;;;5107253;27;20067;-78
2023/12/09 10:04:12;;;;;;;0.40;0.40;;;7.40;99.90;;;;;;5113792;27;20043;-78
2023/12/09 10:06:41;;;;;;;;;;;7.40;99.90;;;;;;5092022;28;20054;-81
2023/12/09 10:09:07;;;;;;;0.52;0.50;;;7.40;99.90;;;;;;5095731;28;20268;-80
2023/12/09 10:11:33;;;;;;;0.60;0.60;;;7.30;99.90;;;;;;5081209;27;20093;-77
2023/12/09 10:13:58;;;;;;;0.55;0.55;;;7.30;99.90;;;;;;5087515;28;20032;-78
2023/12/09 10:16:24;;;;;;;0.50;0.50;;;7.40;99.90;;;;;;5091620;28;20572;-80
2023/12/09 10:18:50;;;;;;;0.80;0.75;;;7.40;99.90;;;;;;5094817;27;20039;-81
2023/12/09 10:21:16;;;;;;;0.77;0.77;;;7.40;99.90;;;;;;5110396;27;20078;-76
2023/12/09 10:23:47;;;;;;;12.73;1.50;;;7.40;99.90;;;;;;5092352;27;20035;-76
2023/12/09 10:26:13;;;;;;;0.52;0.52;;;8.50;99.90;;;;;;5116536;27;20423;-82
2023/12/09 10:28:40;;;;;;;0.70;0.70;;;7.40;99.90;;;;;;5099158;28;20079;-79
2023/12/09 10:31:08;;;;;;;0.55;0.55;;;7.40;99.90;;;;;;5092885;28;20047;-78
2023/12/09 10:33:34;;;;;;;0.60;0.60;;;7.40;99.90;;;;;;5110235;27;20043;-80
2023/12/09 10:36:01;;;;;;;0.40;0.40;;;8.60;99.90;;;;;;5054142;27;20169;-79
2023/12/09 10:38:27;;;;;;;1.25;1.23;;;7.50;99.90;;;;;;5108960;27;20046;-77
2023/12/09 10:40:53;;;;;;;;;;;7.50;99.90;;;;;;5112999;27;20065;-76
2023/12/09 10:43:20;;;;;;;0.37;0.37;;;7.60;99.90;;;;;;5093172;28;19922;-80
2023/12/09 10:45:47;;;;;;;0.63;0.63;;;7.60;99.90;;;;;;5109065;27;20086;-78
2023/12/09 10:48:13;;;;;;;2.47;0.95;;;7.60;99.90;;;;;;5099976;27;20043;-79
2023/12/09 10:50:39;;;;;;;0.77;0.77;;;7.70;99.90;;;;;;5107424;27;20042;-80
2023/12/09 10:53:05;;;;;;;0.85;0.82;;;7.70;99.90;;;;;;5110908;27;20044;-78
2023/12/09 10:55:31;;;;;;;;;;;7.80;99.90;;;;;;5095332;28;20048;-79
2023/12/09 10:57:59;;;;;;;21.13;1.10;;;7.80;99.90;;;;;;5093606;28;19927;-79
2023/12/09 11:00:25;;;;;;;1.40;1.30;;;7.90;99.90;;;;;;5096470;27;20042;-80
2023/12/09 11:02:56;;;;;;;0.47;0.47;;;7.90;99.90;;;;;;5090875;28;20143;-77
2023/12/09 11:05:22;;;;;;;0.40;0.40;;;7.80;99.90;;;;;;5081250;27;20039;-79
2023/12/09 11:07:49;;;;;;;0.40;0.40;;;7.90;99.90;;;;;;5092615;28;20086;-78
2023/12/09 11:10:15;;;;;;;0.40;0.40;;;7.90;99.90;;;;;;5079990;27;20473;-82
2023/12/09 11:12:47;;;;;;;0.77;0.77;;;7.90;99.90;;;;;;5091714;27;20048;-80
2023/12/09 11:15:13;;;;;;;0.63;0.60;;;7.90;99.90;;;;;;5106276;27;20035;-77
2023/12/09 11:17:49;;;;;;;0.30;0.30;;;7.90;99.90;;;;;;5108741;27;20035;-76
2023/12/09 11:20:21;;;;;;;0.40;0.40;;;8.00;99.90;;;;;;5115577;27;20043;-82
2023/12/09 11:22:47;;;;;;;3.53;0.73;;;8.00;99.90;;;;;;5078252;28;20047;-79
2023/12/09 11:25:18;;;;;;;0.50;0.50;;;8.00;99.90;;;;;;5091444;28;20400;-77
2023/12/09 11:27:46;;;;;;;0.35;0.35;;;8.00;99.90;;;;;;5113378;27;20047;-78
2023/12/09 11:30:44;;;;;;;0.63;0.63;;;8.00;99.90;;;;;;5109795;27;20044;-76
2023/12/09 11:33:10;;;;;;;0.40;0.40;;;8.70;99.90;;;;;;5081807;28;20718;-77
2023/12/09 11:35:37;;;;;;;0.40;0.40;;;8.00;99.90;;;;;;5090408;28;20039;-81
2023/12/09 11:38:05;;;;;;;0.45;0.45;;;8.00;99.90;;;;;;5095738;27;20050;-77
2023/12/09 11:40:32;;;;;;;0.88;0.88;;;8.00;99.90;;;;;;5107339;27;20044;-79
2023/12/09 11:42:59;;;;;;;0.30;0.30;;;7.90;99.90;;;;;;5074855;27;20059;-80
2023/12/09 11:45:29;;;;;;;0.40;0.40;;;7.90;99.90;;;;;;5074457;28;20370;-79
2023/12/09 11:47:55;;;;;;;0.40;0.40;;;7.90;99.90;;;;;;5108272;27;20130;-82
2023/12/09 11:50:21;;;;;;;0.73;0.60;;;7.90;99.90;;;;;;5088570;28;20046;-78
2023/12/09 11:52:48;;;;;;;0.32;0.32;;;7.90;99.90;;;;;;5092186;28;20031;-80
2023/12/09 11:55:17;;;;;;;0.40;0.40;;;7.90;99.90;;;;;;5090940;27;20087;-76
2023/12/09 11:57:43;;;;;;;0.25;0.25;;;7.90;99.90;;;;;;5092017;28;20038;-81
2023/12/09 12:00:13;;;;;;;0.30;0.30;;;7.90;99.90;;;;;;5111878;27;20873;-80
2023/12/09 12:02:42;;;;;;;4.38;0.57;;;8.00;99.90;;;;;;5076791;28;20039;-79
2023/12/09 12:05:09;;;;;;;0.40;0.40;;;8.00;99.90;;;;;;5108588;27;20054;-80
2023/12/09 12:07:39;;;;;;;0.50;0.50;;;8.00;99.90;;;;;;5108742;27;20039;-80
2023/12/09 12:10:09;;;;;;;0.80;0.80;;;8.00;99.90;;;;;;5107770;27;20458;-80
2023/12/09 12:12:35;;;;;;;0.45;0.45;;;8.00;99.90;;;;;;5107393;27;20062;-79
2023/12/09 12:15:02;;;;;;;0.40;0.40;;;8.10;99.90;;;;;;5107116;27;20114;-79
2023/12/09 12:17:39;;;;;;;0.40;0.40;;;8.00;99.90;;;;;;5089924;28;20027;-78
2023/12/09 12:20:08;;;;;;;0.70;0.70;;;8.00;99.90;;;;;;5107045;27;20136;-80
2023/12/09 12:22:34;;;;;;;0.70;0.70;;;8.00;99.90;;;;;;5075729;28;20173;-77
2023/12/09 12:25:00;;;;;;;0.50;0.50;;;8.10;99.90;;;;;;5108991;27;20088;-79
2023/12/09 12:27:26;;;;;;;0.40;0.40;;;8.00;99.90;;;;;;5089813;28;20118;-77
2023/12/09 12:29:51;;;;;;;0.45;0.45;;;8.00;99.90;;;;;;5092125;28;20054;-80
2023/12/09 12:32:17;;;;;;;1.23;0.77;;;8.00;99.90;;;;;;5087610;28;20161;-79
2023/12/09 12:34:46;;;;;;;0.60;0.60;;;8.00;99.90;;;;;;5088202;28;20750;-79
2023/12/09 12:37:12;;;;;;;0.75;0.75;;;8.00;99.90;;;;;;5107326;28;20035;-79
2023/12/09 12:39:38;;;;;;;0.30;0.30;;;7.90;99.90;;;;;;5087283;28;20032;-79
2023/12/09 12:42:05;;;;;;;;;;;7.90;99.90;;;;;;5107720;27;20067;-78
2023/12/09 12:44:32;;;;;;;0.30;0.30;;;7.90;99.90;;;;;;5104305;27;19928;-76
2023/12/09 12:46:58;;;;;;;0.50;0.50;;;7.90;99.90;;;;;;5107398;27;20088;-80
2023/12/09 12:49:25;;;;;;;0.45;0.45;;;8.00;99.90;;;;;;5115244;27;20066;-75
2023/12/09 12:51:51;;;;;;;0.30;0.30;;;7.90;99.90;;;;;;5076070;28;20043;-76
2023/12/09 12:54:17;;;;;;;0.47;0.47;;;8.00;99.90;;;;;;5075446;28;20065;-79
2023/12/09 12:56:42;;;;;;;0.65;0.65;;;8.00;99.90;;;;;;5109223;27;20093;-77
2023/12/09 12:59:08;;;;;;;0.30;0.30;;;8.00;99.90;;;;;;5108548;27;20382;-79